Caldwell, Texas
Current Conditions -  °F | °C
As of 7:55 PM on Sunday 21 Dec 2014 (Local Time) from KRWV Reporting Station
Overcast Overcast  
Wind Chill: 12°   Ceiling: 2100
Heat Index: 12°   Visibility: 10mi
Dew Point: 12°   Wind: 8mph
Humidity: 100%   Direction: 170°S
Pressure: 29.92"   Gusts: NA
Location:  30.53°N, 96.69°W
Report Text: KRWV 220155Z AUTO 17007KT 10SM OVC021 12/12 A2992 RMK AO2
Loading
Personal Weather Stations






























Interactive Weather Map New forecast layout! Learn more

10-Day Weather Forecast

Advertisements
Track Severe Weather on mobile